MSLPMHLM

Guest
Details From MSLP - El Salvador Intl
To MHLM - La Mesa Intl
Flight Number -
Tags Generated
Created
Modified
Stats Distance 136 nm / 252 km
Max Altitude 0 ft / 0 m
Waypoints 2
Social Downloads 4
Likes 0
Share VATSIM

Download

Looking for another format? Having issues loading an existing format? Contact us
Advertisement - Login to hide

Notes

Generated

Route

MSLP MHLM

ID Type Via Altitude Latitude Longitude Leg Dist Tot Dist Heading (true) Name
O MSLP APT - 0 ft / 0 m 13.45400˚ -89.04775˚ - 0 nm - El Salvador Intl
O MHLM APT - 0 ft / 0 m 15.44228˚ -87.93260˚ 135 nm 135 nm 28° / 29° -

Altitude Profile

Advertisement - Login to hide

MSLP

Details ICAO MSLP (SAL)
Name El Salvador Intl
Region El Salvador
Timezone America/El_Salvador (UTC-6.0)
Stats Elevation 101 ft / 31 m (AMSL)
Location 13.445666° -89.051739°
Runways 2
Magnetic Variation 0.451° E

METAR

MSLP 151650Z VRB04KT 9999 FEW060 31/19 Q1012 A2990 NOSIG

Decode

TAF

Not found

Departure Runways

ID Width Length Bearing (true) Bearing (mag) Surface Threshold Offset Overrun Length
07 148 ft / 45 m 10,507 ft / 3,202 m 69.86° 69.41° Asphalt 0 ft / 0 m 200 ft / 61 m
18 75 ft / 23 m 2,639 ft / 804 m 180.00° 179.55° Asphalt 0 ft / 0 m 120 ft / 37 m
25 148 ft / 45 m 10,507 ft / 3,202 m 249.87° 249.42° Asphalt 0 ft / 0 m 200 ft / 61 m
36 75 ft / 23 m 2,639 ft / 804 m 0.00° 359.55° Asphalt 0 ft / 0 m 120 ft / 37 m

MHLM

Details ICAO MHLM (SAP)
Name La Mesa Intl
Region Honduras
Timezone America/Tegucigalpa (UTC-6.0)
Stats Elevation 91 ft / 28 m (AMSL)
Location 15.451957° -87.924153°
Runways 1
Magnetic Variation 0.474° W

METAR

MHLM 151700Z 00000KT 9999 FEW028 18/22 Q1015 A2997 NOSIG

Decode

TAF

Not found

Destination Runways

ID Width Length Bearing (true) Bearing (mag) Surface Threshold Offset Overrun Length
04 148 ft / 45 m 9,232 ft / 2,814 m 40.08° 40.55° Concrete 656 ft / 200 m 262 ft / 80 m
22 148 ft / 45 m 9,232 ft / 2,814 m 220.08° 220.55° Concrete 0 ft / 0 m 492 ft / 150 m

Popular Alternatives